Wetterdaten: Dienstag, 26.11.2013
Datum Zeit Temperatur Luftfeuchte Luftdruck Regen Wind Richtung Richtung Taupunkt Windchill Windben
26.11.2013 00:00 -4,7 C 87 % 1026,2 hPa 0,0 l/m 3,9 km/h (1 Bft) O 90 -6,5 C -6,2 C 5,5 km/h (1 Bft)
26.11.2013 00:05 -4,7 C 87 % 1026,1 hPa 0,0 l/m 4,7 km/h (1 Bft) O-SO 112 -6,5 C -6,7 C 3,7 km/h (1 Bft)
26.11.2013 00:10 -4,6 C 87 % 1026,1 hPa 0,0 l/m 3,1 km/h (1 Bft) O-SO 112 -6,4 C -5,4 C 0,0 km/h (0 Bft)
26.11.2013 00:15 -4,6 C 87 % 1026,1 hPa 0,0 l/m 1,3 km/h (1 Bft) O 90 -6,4 C -4,5 C 4,3 km/h (1 Bft)
26.11.2013 00:20 -4,6 C 87 % 1026,1 hPa 0,0 l/m 2,1 km/h (1 Bft) O-SO 112 -6,4 C -4,5 C 3,1 km/h (1 Bft)
26.11.2013 00:25 -4,6 C 87 % 1026,0 hPa 0,0 l/m 3,2 km/h (1 Bft) O 90 -6,4 C -5,4 C 5,3 km/h (1 Bft)
26.11.2013 00:30 -4,6 C 87 % 1026,0 hPa 0,0 l/m 2,6 km/h (1 Bft) O-SO 112 -6,4 C -4,9 C 0,0 km/h (0 Bft)
26.11.2013 00:34 -4,6 C 88 % 1026,0 hPa 0,0 l/m 1,0 km/h (0 Bft) O-SO 112 -6,3 C -4,5 C 0,0 km/h (0 Bft)
26.11.2013 00:35 -4,6 C 88 % 1026,0 hPa 0,0 l/m 1,0 km/h (0 Bft) O-SO 112 -6,3 C -4,5 C 0,0 km/h (0 Bft)
26.11.2013 00:40 -4,7 C 88 % 1026,0 hPa 0,0 l/m 0,3 km/h (0 Bft) SO 135 -6,4 C -4,5 C 0,0 km/h (0 Bft)
26.11.2013 00:45 -4,7 C 88 % 1025,9 hPa 0,0 l/m 0,2 km/h (0 Bft) S 180 -6,4 C -4,6 C 0,0 km/h (0 Bft)
26.11.2013 00:50 -4,7 C 88 % 1025,9 hPa 0,0 l/m 0,3 km/h (0 Bft) S 180 -6,4 C -4,6 C 2,1 km/h (1 Bft)
26.11.2013 00:55 -4,6 C 88 % 1025,9 hPa 0,0 l/m 1,0 km/h (0 Bft) S-SW 202 -6,3 C -4,5 C 3,2 km/h (1 Bft)
26.11.2013 01:00 -4,6 C 88 % 1025,9 hPa 0,0 l/m 1,4 km/h (1 Bft) S 180 -6,3 C -4,5 C 4,8 km/h (1 Bft)
26.11.2013 01:05 -4,6 C 88 % 1026,2 hPa 0,0 l/m 2,6 km/h (1 Bft) W 270 -6,3 C -5,1 C 5,5 km/h (1 Bft)
26.11.2013 01:10 -4,6 C 88 % 1026,2 hPa 0,0 l/m 3,1 km/h (1 Bft) SO 135 -6,3 C -5,4 C 2,3 km/h (1 Bft)
26.11.2013 01:15 -4,7 C 88 % 1026,2 hPa 0,0 l/m 1,8 km/h (1 Bft) S 180 -6,4 C -4,6 C 1,8 km/h (1 Bft)
26.11.2013 01:20 -4,6 C 88 % 1026,2 hPa 0,0 l/m 1,3 km/h (1 Bft) S-SO 157 -6,3 C -4,6 C 4,2 km/h (1 Bft)
26.11.2013 01:25 -4,6 C 89 % 1026,2 hPa 0,0 l/m 2,7 km/h (1 Bft) S 180 -6,1 C -5,3 C 6,8 km/h (2 Bft)
26.11.2013 01:30 -4,7 C 89 % 1026,2 hPa 0,0 l/m 2,6 km/h (1 Bft) S 180 -6,2 C -5,2 C 2,6 km/h (1 Bft)
26.11.2013 01:35 -4,7 C 89 % 1026,2 hPa 0,0 l/m 2,7 km/h (1 Bft) S 180 -6,2 C -5,3 C 6,9 km/h (2 Bft)
26.11.2013 01:40 -4,7 C 89 % 1026,2 hPa 0,0 l/m 3,5 km/h (1 Bft) S 180 -6,2 C -5,9 C 5,8 km/h (2 Bft)
26.11.2013 01:45 -4,7 C 89 % 1026,2 hPa 0,0 l/m 4,0 km/h (1 Bft) S 180 -6,2 C -6,2 C 7,6 km/h (2 Bft)
26.11.2013 01:50 -4,7 C 89 % 1026,2 hPa 0,0 l/m 4,7 km/h (1 Bft) S 180 -6,2 C -6,7 C 6,4 km/h (2 Bft)
26.11.2013 01:55 -4,7 C 89 % 1026,2 hPa 0,0 l/m 5,3 km/h (1 Bft) S 180 -6,2 C -7,0 C 9,3 km/h (2 Bft)
26.11.2013 02:00 -4,7 C 88 % 1026,2 hPa 0,0 l/m 5,5 km/h (1 Bft) S-SO 157 -6,4 C -7,1 C 7,7 km/h (2 Bft)
26.11.2013 02:05 -4,7 C 88 % 1026,2 hPa 0,0 l/m 5,8 km/h (2 Bft) S 180 -6,4 C -7,2 C 8,0 km/h (2 Bft)
26.11.2013 02:10 -4,7 C 88 % 1026,2 hPa 0,0 l/m 5,5 km/h (1 Bft) SO 135 -6,4 C -7,1 C 7,1 km/h (2 Bft)
26.11.2013 02:15 -4,7 C 88 % 1026,2 hPa 0,0 l/m 5,0 km/h (1 Bft) S-SO 157 -6,4 C -6,8 C 4,5 km/h (1 Bft)
26.11.2013 02:20 -4,7 C 88 % 1026,2 hPa 0,0 l/m 3,9 km/h (1 Bft) S 180 -6,4 C -6,1 C 3,9 km/h (1 Bft)
26.11.2013 02:25 -4,7 C 88 % 1026,2 hPa 0,0 l/m 2,7 km/h (1 Bft) S 180 -6,4 C -5,3 C 5,3 km/h (1 Bft)
26.11.2013 02:30 -4,7 C 88 % 1026,2 hPa 0,0 l/m 2,7 km/h (1 Bft) S 180 -6,4 C -5,3 C 3,5 km/h (1 Bft)
26.11.2013 02:35 -4,7 C 88 % 1026,2 hPa 0,0 l/m 2,7 km/h (1 Bft) S 180 -6,4 C -5,3 C 2,6 km/h (1 Bft)
26.11.2013 02:40 -4,7 C 88 % 1026,2 hPa 0,0 l/m 2,4 km/h (1 Bft) S 180 -6,4 C -5,0 C 2,3 km/h (1 Bft)
26.11.2013 02:45 -4,7 C 89 % 1026,2 hPa 0,0 l/m 2,4 km/h (1 Bft) S-SO 157 -6,2 C -5,0 C 0,0 km/h (0 Bft)
26.11.2013 02:50 -4,7 C 89 % 1026,2 hPa 0,0 l/m 2,6 km/h (1 Bft) S 180 -6,2 C -5,2 C 7,6 km/h (2 Bft)
26.11.2013 02:55 -4,7 C 89 % 1026,2 hPa 0,0 l/m 3,2 km/h (1 Bft) S-SW 202 -6,2 C -5,7 C 6,4 km/h (2 Bft)
26.11.2013 03:00 -4,7 C 89 % 1026,2 hPa 0,0 l/m 3,9 km/h (1 Bft) S-SW 202 -6,2 C -6,1 C 4,3 km/h (1 Bft)
26.11.2013 03:05 -4,7 C 89 % 1026,2 hPa 0,0 l/m 3,2 km/h (1 Bft) S-SO 157 -6,2 C -5,6 C 6,6 km/h (2 Bft)
26.11.2013 03:10 -4,6 C 89 % 1026,2 hPa 0,0 l/m 3,7 km/h (1 Bft) S 180 -6,1 C -5,9 C 5,6 km/h (1 Bft)
26.11.2013 03:15 -4,6 C 89 % 1026,2 hPa 0,0 l/m 4,5 km/h (1 Bft) S 180 -6,1 C -6,4 C 5,0 km/h (1 Bft)
26.11.2013 03:20 -4,6 C 89 % 1026,2 hPa 0,0 l/m 4,2 km/h (1 Bft) SO 135 -6,1 C -6,2 C 3,5 km/h (1 Bft)
26.11.2013 03:25 -4,6 C 88 % 1026,2 hPa 0,0 l/m 5,1 km/h (1 Bft) S 180 -6,3 C -6,8 C 10,5 km/h (2 Bft)
26.11.2013 03:30 -4,7 C 88 % 1026,2 hPa 0,0 l/m 5,8 km/h (2 Bft) SO 135 -6,4 C -7,1 C 6,9 km/h (2 Bft)
26.11.2013 03:35 -4,7 C 88 % 1026,2 hPa 0,0 l/m 5,6 km/h (1 Bft) S-SO 157 -6,4 C -7,1 C 6,8 km/h (2 Bft)
26.11.2013 03:40 -4,7 C 88 % 1026,2 hPa 0,0 l/m 4,8 km/h (1 Bft) S 180 -6,4 C -6,6 C 2,7 km/h (1 Bft)
26.11.2013 03:45 -4,6 C 88 % 1026,2 hPa 0,0 l/m 4,2 km/h (1 Bft) S-SW 202 -6,3 C -6,2 C 4,8 km/h (1 Bft)
26.11.2013 03:50 -4,6 C 88 % 1026,2 hPa 0,0 l/m 4,0 km/h (1 Bft) S 180 -6,3 C -6,1 C 5,0 km/h (1 Bft)
26.11.2013 03:55 -4,6 C 88 % 1026,2 hPa 0,0 l/m 4,2 km/h (1 Bft) S 180 -6,3 C -6,1 C 5,0 km/h (1 Bft)
26.11.2013 04:00 -4,6 C 88 % 1026,2 hPa 0,0 l/m 3,7 km/h (1 Bft) S-SO 157 -6,3 C -5,8 C 3,4 km/h (1 Bft)
26.11.2013 04:05 -4,6 C 89 % 1026,4 hPa 0,0 l/m 3,9 km/h (1 Bft) S 180 -6,1 C -6,0 C 5,6 km/h (1 Bft)
26.11.2013 04:10 -4,6 C 89 % 1026,4 hPa 0,0 l/m 4,7 km/h (1 Bft) S 180 -6,1 C -6,5 C 5,8 km/h (2 Bft)
26.11.2013 04:15 -4,5 C 88 % 1026,4 hPa 0,0 l/m 5,8 km/h (2 Bft) SO 135 -6,2 C -7,0 C 10,8 km/h (2 Bft)
26.11.2013 04:20 -4,5 C 88 % 1026,4 hPa 0,0 l/m 5,6 km/h (1 Bft) S-SW 202 -6,2 C -6,9 C 5,5 km/h (1 Bft)
26.11.2013 04:25 -4,5 C 88 % 1026,6 hPa 0,0 l/m 5,1 km/h (1 Bft) O-SO 112 -6,2 C -6,7 C 5,1 km/h (1 Bft)
26.11.2013 04:30 -4,5 C 88 % 1026,6 hPa 0,0 l/m 5,0 km/h (1 Bft) S-SW 202 -6,2 C -6,6 C 6,0 km/h (2 Bft)
26.11.2013 04:35 -4,6 C 88 % 1026,6 hPa 0,0 l/m 4,3 km/h (1 Bft) S 180 -6,3 C -6,2 C 5,3 km/h (1 Bft)
26.11.2013 04:40 -4,6 C 88 % 1026,6 hPa 0,0 l/m 4,2 km/h (1 Bft) S 180 -6,3 C -6,1 C 4,5 km/h (1 Bft)
26.11.2013 04:45 -4,7 C 88 % 1026,7 hPa 0,0 l/m 3,9 km/h (1 Bft) S 180 -6,4 C -6,0 C 2,9 km/h (1 Bft)
26.11.2013 04:50 -4,7 C 88 % 1026,7 hPa 0,0 l/m 3,2 km/h (1 Bft) S-SW 202 -6,4 C -5,7 C 1,8 km/h (1 Bft)
26.11.2013 04:55 -5,0 C 88 % 1026,7 hPa 0,0 l/m 3,7 km/h (1 Bft) S-SO 157 -6,7 C -6,1 C 4,0 km/h (1 Bft)
26.11.2013 05:00 -5,2 C 88 % 1026,7 hPa 0,0 l/m 4,2 km/h (1 Bft) S-SW 202 -6,9 C -6,6 C 6,0 km/h (2 Bft)
26.11.2013 05:05 -5,8 C 88 % 1026,9 hPa 0,0 l/m 3,2 km/h (1 Bft) S-SO 157 -7,5 C -6,1 C 4,0 km/h (1 Bft)
26.11.2013 05:10 -6,0 C 88 % 1026,9 hPa 0,0 l/m 2,4 km/h (1 Bft) S 180 -7,7 C -5,5 C 0,0 km/h (0 Bft)
26.11.2013 05:15 -5,7 C 88 % 1026,9 hPa 0,0 l/m 1,8 km/h (1 Bft) S-SO 157 -7,4 C -5,2 C 5,5 km/h (1 Bft)
26.11.2013 05:20 -5,0 C 88 % 1026,9 hPa 0,0 l/m 2,9 km/h (1 Bft) O 90 -6,7 C -5,9 C 7,7 km/h (2 Bft)
26.11.2013 05:25 -4,7 C 89 % 1026,8 hPa 0,0 l/m 5,1 km/h (1 Bft) O-SO 112 -6,2 C -7,2 C 7,2 km/h (2 Bft)
26.11.2013 05:30 -4,7 C 89 % 1026,8 hPa 0,0 l/m 4,8 km/h (1 Bft) S 180 -6,2 C -6,8 C 2,6 km/h (1 Bft)
26.11.2013 05:35 -4,7 C 89 % 1026,8 hPa 0,0 l/m 2,9 km/h (1 Bft) SO 135 -6,2 C -5,4 C 3,7 km/h (1 Bft)
26.11.2013 05:40 -4,7 C 89 % 1026,8 hPa 0,0 l/m 3,2 km/h (1 Bft) S 180 -6,2 C -5,7 C 6,6 km/h (2 Bft)
26.11.2013 05:45 -4,7 C 89 % 1026,8 hPa 0,0 l/m 4,2 km/h (1 Bft) SO 135 -6,2 C -6,2 C 5,5 km/h (1 Bft)
26.11.2013 05:50 -4,6 C 89 % 1026,8 hPa 0,0 l/m 4,8 km/h (1 Bft) S-SO 157 -6,1 C -6,5 C 7,2 km/h (2 Bft)
26.11.2013 05:55 -4,7 C 89 % 1026,8 hPa 0,0 l/m 4,3 km/h (1 Bft) SO 135 -6,2 C -6,2 C 0,0 km/h (0 Bft)
26.11.2013 06:00 -4,7 C 89 % 1026,8 hPa 0,0 l/m 3,2 km/h (1 Bft) O-SO 112 -6,2 C -5,6 C 2,9 km/h (1 Bft)
26.11.2013 06:05 -4,7 C 89 % 1027,0 hPa 0,0 l/m 2,3 km/h (1 Bft) SO 135 -6,2 C -4,7 C 2,9 km/h (1 Bft)
26.11.2013 06:10 -4,7 C 89 % 1027,0 hPa 0,0 l/m 2,4 km/h (1 Bft) SO 135 -6,2 C -4,9 C 4,5 km/h (1 Bft)
26.11.2013 06:15 -4,8 C 89 % 1027,0 hPa 0,0 l/m 1,6 km/h (1 Bft) SO 135 -6,3 C -4,5 C 0,0 km/h (0 Bft)
26.11.2013 06:20 -4,7 C 89 % 1027,0 hPa 0,0 l/m 1,0 km/h (0 Bft) S 180 -6,2 C -4,5 C 0,0 km/h (0 Bft)
26.11.2013 06:25 -4,7 C 89 % 1026,9 hPa 0,0 l/m 0,2 km/h (0 Bft) S 180 -6,2 C -4,5 C 0,0 km/h (0 Bft)
26.11.2013 06:30 -4,6 C 89 % 1026,9 hPa 0,0 l/m 0,2 km/h (0 Bft) S 180 -6,1 C -4,5 C 0,0 km/h (0 Bft)
26.11.2013 06:33 -4,7 C 89 % 1026,9 hPa 0,0 l/m 0,0 km/h (0 Bft) S-SO 157 -6,2 C -4,5 C 0,0 km/h (0 Bft)
26.11.2013 06:35 -4,7 C 89 % 1026,9 hPa 0,0 l/m 0,0 km/h (0 Bft) S-SO 157 -6,2 C -4,5 C 0,0 km/h (0 Bft)
26.11.2013 06:40 -4,8 C 89 % 1026,9 hPa 0,0 l/m 0,2 km/h (0 Bft) S 180 -6,3 C -4,6 C 2,4 km/h (1 Bft)
26.11.2013 06:45 -5,1 C 89 % 1027,2 hPa 0,0 l/m 0,8 km/h (0 Bft) S-SW 202 -6,6 C -4,7 C 1,6 km/h (1 Bft)
26.11.2013 06:50 -5,3 C 89 % 1027,2 hPa 0,0 l/m 0,8 km/h (0 Bft) SW 225 -6,8 C -4,8 C 0,0 km/h (0 Bft)
26.11.2013 06:55 -5,4 C 89 % 1027,2 hPa 0,0 l/m 0,6 km/h (0 Bft) S 180 -6,9 C -5,0 C 4,3 km/h (1 Bft)
26.11.2013 07:00 -5,7 C 89 % 1027,2 hPa 0,0 l/m 1,1 km/h (1 Bft) S 180 -7,2 C -5,1 C 3,7 km/h (1 Bft)
26.11.2013 07:05 -6,4 C 89 % 1027,3 hPa 0,0 l/m 2,7 km/h (1 Bft) S 180 -7,9 C -6,1 C 3,4 km/h (1 Bft)
26.11.2013 07:10 -6,4 C 88 % 1027,3 hPa 0,0 l/m 2,9 km/h (1 Bft) S 180 -8,1 C -6,5 C 3,4 km/h (1 Bft)
26.11.2013 07:15 -6,3 C 89 % 1027,3 hPa 0,0 l/m 2,6 km/h (1 Bft) SO 135 -7,8 C -6,7 C 3,4 km/h (1 Bft)
26.11.2013 07:20 -6,2 C 89 % 1027,3 hPa 0,0 l/m 2,1 km/h (1 Bft) O-SO 112 -7,7 C -6,1 C 1,9 km/h (1 Bft)
26.11.2013 07:25 -6,5 C 89 % 1027,2 hPa 0,0 l/m 0,8 km/h (0 Bft) O-SO 112 -8,0 C -6,2 C 1,6 km/h (1 Bft)
26.11.2013 07:30 -6,5 C 89 % 1027,2 hPa 0,0 l/m 1,1 km/h (1 Bft) O-SO 112 -8,0 C -6,3 C 4,0 km/h (1 Bft)
26.11.2013 07:35 -6,2 C 89 % 1027,2 hPa 0,0 l/m 2,1 km/h (1 Bft) O-SO 112 -7,7 C -6,3 C 3,1 km/h (1 Bft)
26.11.2013 07:40 -6,1 C 89 % 1027,2 hPa 0,0 l/m 2,1 km/h (1 Bft) O-SO 112 -7,6 C -6,2 C 2,3 km/h (1 Bft)
26.11.2013 07:45 -6,1 C 89 % 1027,3 hPa 0,0 l/m 1,0 km/h (0 Bft) S 180 -7,6 C -6,0 C 0,0 km/h (0 Bft)
26.11.2013 07:50 -6,2 C 89 % 1027,3 hPa 0,0 l/m 0,3 km/h (0 Bft) O 90 -7,7 C -6,0 C 0,0 km/h (0 Bft)
26.11.2013 07:55 -5,6 C 90 % 1027,3 hPa 0,0 l/m 1,3 km/h (1 Bft) O-SO 112 -7,0 C -5,9 C 6,3 km/h (2 Bft)
26.11.2013 08:00 -5,5 C 90 % 1027,3 hPa 0,0 l/m 1,8 km/h (1 Bft) S-SO 157 -6,9 C -5,6 C 0,0 km/h (0 Bft)
26.11.2013 08:05 -5,3 C 90 % 1027,5 hPa 0,0 l/m 2,3 km/h (1 Bft) S 180 -6,7 C -5,7 C 1,9 km/h (1 Bft)
26.11.2013 08:10 -5,2 C 90 % 1027,5 hPa 0,0 l/m 1,8 km/h (1 Bft) S 180 -6,6 C -5,2 C 2,7 km/h (1 Bft)
26.11.2013 08:15 -5,1 C 90 % 1027,5 hPa 0,0 l/m 1,9 km/h (1 Bft) S 180 -6,5 C -5,0 C 0,0 km/h (0 Bft)
26.11.2013 08:20 -5,0 C 90 % 1027,5 hPa 0,0 l/m 1,4 km/h (1 Bft) S 180 -6,4 C -5,0 C 0,0 km/h (0 Bft)
26.11.2013 08:25 -5,0 C 90 % 1027,7 hPa 0,0 l/m 0,6 km/h (0 Bft) S-SO 157 -6,4 C -4,9 C 2,9 km/h (1 Bft)
26.11.2013 08:30 -4,8 C 90 % 1027,7 hPa 0,0 l/m 1,3 km/h (1 Bft) S 180 -6,2 C -4,9 C 5,0 km/h (1 Bft)
26.11.2013 08:35 -4,7 C 90 % 1027,7 hPa 0,0 l/m 2,1 km/h (1 Bft) S-SW 202 -6,1 C -4,8 C 3,7 km/h (1 Bft)
26.11.2013 08:40 -4,6 C 90 % 1027,7 hPa 0,0 l/m 1,9 km/h (1 Bft) S 180 -6,0 C -4,7 C 2,6 km/h (1 Bft)
26.11.2013 08:45 -4,4 C 91 % 1028,0 hPa 0,0 l/m 2,7 km/h (1 Bft) S 180 -5,6 C -5,2 C 4,2 km/h (1 Bft)
26.11.2013 08:50 -4,3 C 90 % 1028,0 hPa 0,0 l/m 3,2 km/h (1 Bft) S-SO 157 -5,7 C -5,4 C 4,3 km/h (1 Bft)
26.11.2013 08:55 -4,1 C 90 % 1028,0 hPa 0,0 l/m 3,9 km/h (1 Bft) S 180 -5,5 C -5,7 C 4,3 km/h (1 Bft)
26.11.2013 09:00 -4,0 C 90 % 1028,0 hPa 0,0 l/m 4,3 km/h (1 Bft) S-SO 157 -5,4 C -5,9 C 4,8 km/h (1 Bft)
26.11.2013 09:05 -3,9 C 89 % 1027,9 hPa 0,0 l/m 4,7 km/h (1 Bft) S-SO 157 -5,4 C -5,9 C 2,9 km/h (1 Bft)
26.11.2013 09:10 -3,9 C 89 % 1027,9 hPa 0,0 l/m 5,1 km/h (1 Bft) S-SO 157 -5,4 C -6,1 C 6,9 km/h (2 Bft)
26.11.2013 09:15 -3,9 C 88 % 1027,9 hPa 0,0 l/m 4,8 km/h (1 Bft) S 180 -5,6 C -5,8 C 6,3 km/h (2 Bft)
26.11.2013 09:20 -3,9 C 88 % 1027,9 hPa 0,0 l/m 5,0 km/h (1 Bft) S-SO 157 -5,6 C -5,9 C 3,9 km/h (1 Bft)
26.11.2013 09:25 -3,6 C 87 % 1027,9 hPa 0,0 l/m 5,0 km/h (1 Bft) S 180 -5,4 C -5,7 C 7,2 km/h (2 Bft)
26.11.2013 09:30 -3,4 C 87 % 1027,9 hPa 0,0 l/m 4,3 km/h (1 Bft) S-SO 157 -5,2 C -5,2 C 4,2 km/h (1 Bft)
26.11.2013 09:35 -3,4 C 86 % 1027,9 hPa 0,0 l/m 4,2 km/h (1 Bft) SO 135 -5,4 C -4,8 C 3,5 km/h (1 Bft)
26.11.2013 09:40 -3,5 C 86 % 1027,9 hPa 0,0 l/m 4,5 km/h (1 Bft) S 180 -5,5 C -5,1 C 6,3 km/h (2 Bft)
26.11.2013 09:45 -3,1 C 86 % 1028,0 hPa 0,0 l/m 3,5 km/h (1 Bft) S 180 -5,1 C -4,2 C 2,4 km/h (1 Bft)
26.11.2013 09:50 -2,9 C 85 % 1028,0 hPa 0,0 l/m 3,4 km/h (1 Bft) S 180 -5,1 C -4,0 C 4,3 km/h (1 Bft)
26.11.2013 09:55 -2,9 C 85 % 1028,0 hPa 0,0 l/m 4,0 km/h (1 Bft) S 180 -5,1 C -4,3 C 4,8 km/h (1 Bft)
26.11.2013 10:00 -3,0 C 85 % 1028,0 hPa 0,0 l/m 4,3 km/h (1 Bft) O-SO 112 -5,2 C -4,5 C 7,9 km/h (2 Bft)
26.11.2013 10:05 -3,2 C 84 % 1028,1 hPa 0,0 l/m 4,7 km/h (1 Bft) S 180 -5,5 C -4,8 C 3,7 km/h (1 Bft)
26.11.2013 10:10 -3,3 C 84 % 1028,1 hPa 0,0 l/m 4,3 km/h (1 Bft) S 180 -5,6 C -4,9 C 5,1 km/h (1 Bft)
26.11.2013 10:15 -3,5 C 84 % 1028,1 hPa 0,0 l/m 3,1 km/h (1 Bft) S 180 -5,8 C -4,1 C 5,0 km/h (1 Bft)
26.11.2013 10:20 -3,6 C 84 % 1028,1 hPa 0,0 l/m 3,9 km/h (1 Bft) S 180 -5,9 C -4,9 C 7,4 km/h (2 Bft)
26.11.2013 10:25 -3,5 C 84 % 1028,2 hPa 0,0 l/m 4,5 km/h (1 Bft) S 180 -5,8 C -5,4 C 4,8 km/h (1 Bft)
26.11.2013 10:30 -3,2 C 84 % 1028,2 hPa 0,0 l/m 4,2 km/h (1 Bft) SW 225 -5,5 C -5,1 C 2,7 km/h (1 Bft)
26.11.2013 10:35 -2,3 C 85 % 1028,2 hPa 0,0 l/m 2,4 km/h (1 Bft) S 180 -4,5 C -3,1 C 3,2 km/h (1 Bft)
26.11.2013 10:40 -2,0 C 85 % 1028,2 hPa 0,0 l/m 2,3 km/h (1 Bft) S-SW 202 -4,2 C -2,4 C 5,8 km/h (2 Bft)
26.11.2013 10:45 -2,7 C 82 % 1028,3 hPa 0,0 l/m 4,5 km/h (1 Bft) S 180 -5,3 C -4,1 C 6,4 km/h (2 Bft)
26.11.2013 10:50 -3,2 C 81 % 1028,3 hPa 0,0 l/m 6,3 km/h (2 Bft) S 180 -6,0 C -5,3 C 8,4 km/h (2 Bft)
26.11.2013 10:55 -3,4 C 82 % 1028,3 hPa 0,0 l/m 6,4 km/h (2 Bft) S 180 -6,0 C -5,8 C 12,4 km/h (3 Bft)
26.11.2013 11:00 -3,5 C 82 % 1028,3 hPa 0,0 l/m 6,1 km/h (2 Bft) S 180 -6,1 C -6,0 C 6,8 km/h (2 Bft)
26.11.2013 11:05 -3,5 C 83 % 1028,3 hPa 0,0 l/m 5,5 km/h (1 Bft) W-SW 247 -6,0 C -5,8 C 5,3 km/h (1 Bft)
26.11.2013 11:10 -3,3 C 83 % 1028,3 hPa 0,0 l/m 4,7 km/h (1 Bft) W-NW 292 -5,8 C -5,4 C 2,9 km/h (1 Bft)
26.11.2013 11:15 -2,9 C 83 % 1028,3 hPa 0,0 l/m 4,5 km/h (1 Bft) S-SW 202 -5,4 C -5,0 C 5,0 km/h (1 Bft)
26.11.2013 11:20 -2,3 C 83 % 1028,3 hPa 0,0 l/m 4,8 km/h (1 Bft) W-SW 247 -4,8 C -4,8 C 6,4 km/h (2 Bft)
26.11.2013 11:25 -2,2 C 84 % 1028,4 hPa 0,0 l/m 4,3 km/h (1 Bft) S 180 -4,5 C -4,1 C 5,0 km/h (1 Bft)
26.11.2013 11:29 -2,4 C 83 % 1028,4 hPa 0,0 l/m 4,0 km/h (1 Bft) S 180 -4,9 C -3,8 C 3,1 km/h (1 Bft)
26.11.2013 11:30 -2,4 C 83 % 1028,4 hPa 0,0 l/m 4,0 km/h (1 Bft) S 180 -4,9 C -3,8 C 3,1 km/h (1 Bft)
26.11.2013 11:35 -2,0 C 83 % 1028,4 hPa 0,0 l/m 3,4 km/h (1 Bft) S 180 -4,5 C -3,2 C 5,3 km/h (1 Bft)
26.11.2013 11:40 -1,9 C 83 % 1028,4 hPa 0,0 l/m 3,2 km/h (1 Bft) SW 225 -4,4 C -2,9 C 3,2 km/h (1 Bft)
26.11.2013 11:45 -2,4 C 81 % 1028,2 hPa 0,0 l/m 4,0 km/h (1 Bft) S 180 -5,2 C -3,6 C 6,1 km/h (2 Bft)
26.11.2013 11:50 -2,7 C 80 % 1028,2 hPa 0,0 l/m 3,9 km/h (1 Bft) W-SW 247 -5,7 C -3,5 C 4,5 km/h (1 Bft)
26.11.2013 11:55 -2,9 C 81 % 1028,2 hPa 0,0 l/m 2,7 km/h (1 Bft) S-SW 202 -5,7 C -3,1 C 1,6 km/h (1 Bft)
26.11.2013 12:00 -2,7 C 81 % 1028,2 hPa 0,0 l/m 1,9 km/h (1 Bft) S 180 -5,5 C -2,7 C 2,6 km/h (1 Bft)
26.11.2013 12:05 -2,3 C 81 % 1028,1 hPa 0,0 l/m 2,4 km/h (1 Bft) SW 225 -5,1 C -2,8 C 2,7 km/h (1 Bft)
26.11.2013 12:10 -1,6 C 82 % 1028,1 hPa 0,0 l/m 2,1 km/h (1 Bft) W-SW 247 -4,3 C -2,3 C 1,6 km/h (1 Bft)
26.11.2013 12:15 -0,9 C 83 % 1028,1 hPa 0,0 l/m 0,8 km/h (0 Bft) S 180 -3,4 C -1,4 C 0,0 km/h (0 Bft)
26.11.2013 12:20 -0,8 C 82 % 1028,1 hPa 0,0 l/m 1,3 km/h (1 Bft) W-SW 247 -3,5 C -0,8 C 2,6 km/h (1 Bft)
26.11.2013 12:25 -0,9 C 81 % 1027,9 hPa 0,0 l/m 1,1 km/h (1 Bft) S 180 -3,7 C -0,5 C 0,0 km/h (0 Bft)
26.11.2013 12:30 -1,3 C 81 % 1027,9 hPa 0,0 l/m 1,1 km/h (1 Bft) W-SW 247 -4,1 C -0,6 C 4,0 km/h (1 Bft)
26.11.2013 12:35 -2,0 C 80 % 1027,9 hPa 0,0 l/m 2,9 km/h (1 Bft) S 180 -5,0 C -1,8 C 4,8 km/h (1 Bft)
26.11.2013 12:40 -2,4 C 79 % 1027,9 hPa 0,0 l/m 4,2 km/h (1 Bft) W-SW 247 -5,5 C -3,3 C 5,3 km/h (1 Bft)
26.11.2013 12:45 -2,4 C 81 % 1028,0 hPa 0,0 l/m 2,9 km/h (1 Bft) S 180 -5,2 C -2,9 C 0,0 km/h (0 Bft)
26.11.2013 12:50 -2,0 C 82 % 1028,0 hPa 0,0 l/m 1,8 km/h (1 Bft) SW 225 -4,7 C -2,4 C 0,0 km/h (0 Bft)
26.11.2013 12:55 -1,8 C 82 % 1028,0 hPa 0,0 l/m 0,5 km/h (0 Bft) S 180 -4,5 C -2,2 C 0,0 km/h (0 Bft)
26.11.2013 13:00 -1,5 C 82 % 1028,0 hPa 0,0 l/m 0,2 km/h (0 Bft) S 180 -4,2 C -1,9 C 0,0 km/h (0 Bft)
26.11.2013 13:05 -1,4 C 83 % 1028,0 hPa 0,0 l/m 0,2 km/h (0 Bft) W-SW 247 -3,9 C -1,5 C 2,3 km/h (1 Bft)
26.11.2013 13:10 -1,9 C 81 % 1028,0 hPa 0,0 l/m 0,6 km/h (0 Bft) W-NW 292 -4,7 C -1,4 C 6,4 km/h (2 Bft)
26.11.2013 13:15 -2,3 C 80 % 1028,0 hPa 0,0 l/m 2,3 km/h (1 Bft) W 270 -5,3 C -1,8 C 2,6 km/h (1 Bft)
26.11.2013 13:20 -2,6 C 80 % 1028,0 hPa 0,0 l/m 2,3 km/h (1 Bft) S-SW 202 -5,6 C -2,1 C 0,0 km/h (0 Bft)
26.11.2013 13:25 -3,3 C 80 % 1028,0 hPa 0,0 l/m 0,3 km/h (0 Bft) S-SW 202 -6,2 C -2,5 C 1,6 km/h (1 Bft)
26.11.2013 13:30 -3,6 C 80 % 1028,0 hPa 0,0 l/m 0,5 km/h (0 Bft) S-SW 202 -6,5 C -2,8 C 2,3 km/h (1 Bft)
26.11.2013 13:35 -3,6 C 79 % 1028,0 hPa 0,0 l/m 2,3 km/h (1 Bft) S-SO 157 -6,7 C -2,6 C 4,8 km/h (1 Bft)
26.11.2013 13:40 -3,6 C 79 % 1028,0 hPa 0,0 l/m 2,9 km/h (1 Bft) S-SO 157 -6,7 C -2,0 C 3,5 km/h (1 Bft)
26.11.2013 13:45 -2,8 C 80 % 1027,9 hPa 0,0 l/m 2,3 km/h (1 Bft) S 180 -5,8 C 0,7 C 2,3 km/h (1 Bft)
26.11.2013 13:50 -2,0 C 79 % 1027,9 hPa 0,0 l/m 2,4 km/h (1 Bft) O-SO 112 -5,1 C 2,3 C 2,6 km/h (1 Bft)
26.11.2013 13:55 -0,3 C 76 % 1027,9 hPa 0,0 l/m 2,7 km/h (1 Bft) S-SO 157 -4,0 C 3,4 C 3,7 km/h (1 Bft)
26.11.2013 14:00 -0,1 C 72 % 1027,9 hPa 0,0 l/m 4,0 km/h (1 Bft) S-SO 157 -4,5 C 2,9 C 7,4 km/h (2 Bft)
26.11.2013 14:05 1,5 C 67 % 1027,9 hPa 0,0 l/m 5,6 km/h (1 Bft) SW 225 -3,9 C 3,0 C 7,1 km/h (2 Bft)
26.11.2013 14:10 1,1 C 66 % 1027,9 hPa 0,0 l/m 6,0 km/h (2 Bft) S 180 -4,5 C 3,2 C 8,4 km/h (2 Bft)
26.11.2013 14:15 -0,4 C 70 % 1027,9 hPa 0,0 l/m 6,0 km/h (2 Bft) S 180 -5,2 C 2,7 C 7,4 km/h (2 Bft)
26.11.2013 14:20 -1,0 C 69 % 1027,9 hPa 0,0 l/m 5,6 km/h (1 Bft) S-SO 157 -5,9 C 1,7 C 4,3 km/h (1 Bft)
26.11.2013 14:25 -1,3 C 70 % 1027,8 hPa 0,0 l/m 5,6 km/h (1 Bft) S 180 -6,0 C -0,5 C 7,1 km/h (2 Bft)
26.11.2013 14:30 -1,6 C 70 % 1027,8 hPa 0,0 l/m 6,1 km/h (2 Bft) S 180 -6,3 C -2,1 C 6,4 km/h (2 Bft)
26.11.2013 14:35 -2,0 C 71 % 1027,8 hPa 0,0 l/m 6,0 km/h (2 Bft) S-SW 202 -6,5 C -3,4 C 5,8 km/h (2 Bft)
26.11.2013 14:40 -2,3 C 72 % 1027,8 hPa 0,0 l/m 5,3 km/h (1 Bft) S 180 -6,6 C -3,6 C 5,0 km/h (1 Bft)
26.11.2013 14:45 -2,4 C 73 % 1028,1 hPa 0,0 l/m 5,1 km/h (1 Bft) S 180 -6,6 C -4,1 C 4,3 km/h (1 Bft)
26.11.2013 14:50 -2,3 C 74 % 1028,1 hPa 0,0 l/m 5,1 km/h (1 Bft) S-SO 157 -6,3 C -4,2 C 4,2 km/h (1 Bft)
26.11.2013 14:55 -1,9 C 75 % 1028,1 hPa 0,0 l/m 4,7 km/h (1 Bft) S 180 -5,7 C -3,9 C 3,2 km/h (1 Bft)
26.11.2013 15:00 -2,1 C 75 % 1028,1 hPa 0,0 l/m 4,7 km/h (1 Bft) S 180 -5,9 C -3,9 C 5,5 km/h (1 Bft)
26.11.2013 15:05 -2,7 C 74 % 1028,1 hPa 0,0 l/m 5,3 km/h (1 Bft) W-SW 247 -6,7 C -4,4 C 7,2 km/h (2 Bft)
26.11.2013 15:10 -2,9 C 75 % 1028,1 hPa 0,0 l/m 5,3 km/h (1 Bft) S-SW 202 -6,7 C -4,8 C 6,1 km/h (2 Bft)
26.11.2013 15:15 -3,6 C 77 % 1028,1 hPa 0,0 l/m 5,6 km/h (1 Bft) S 180 -7,0 C -5,6 C 6,1 km/h (2 Bft)
26.11.2013 15:20 -3,9 C 78 % 1028,1 hPa 0,0 l/m 6,1 km/h (2 Bft) S 180 -7,2 C -6,1 C 7,1 km/h (2 Bft)
26.11.2013 15:25 -4,1 C 79 % 1028,1 hPa 0,0 l/m 6,6 km/h (2 Bft) W-NW 292 -7,2 C -7,1 C 12,7 km/h (3 Bft)
26.11.2013 15:30 -4,1 C 80 % 1028,1 hPa 0,0 l/m 6,6 km/h (2 Bft) W-SW 247 -7,0 C -7,3 C 5,1 km/h (1 Bft)
26.11.2013 15:35 -4,1 C 81 % 1028,1 hPa 0,0 l/m 3,5 km/h (1 Bft) S-SW 202 -6,9 C -5,4 C 2,4 km/h (1 Bft)
26.11.2013 15:40 -4,5 C 82 % 1028,1 hPa 0,0 l/m 1,6 km/h (1 Bft) S 180 -7,1 C -4,3 C 3,2 km/h (1 Bft)
26.11.2013 15:45 -5,1 C 81 % 1027,9 hPa 0,0 l/m 2,3 km/h (1 Bft) S 180 -7,8 C -4,8 C 1,8 km/h (1 Bft)
26.11.2013 15:50 -5,0 C 82 % 1027,9 hPa 0,0 l/m 2,7 km/h (1 Bft) S 180 -7,6 C -5,4 C 3,5 km/h (1 Bft)
26.11.2013 15:55 -4,6 C 83 % 1027,9 hPa 0,0 l/m 3,1 km/h (1 Bft) S-SO 157 -7,0 C -5,6 C 2,9 km/h (1 Bft)
26.11.2013 16:00 -4,8 C 83 % 1027,9 hPa 0,0 l/m 3,4 km/h (1 Bft) S-SO 157 -7,2 C -5,8 C 4,0 km/h (1 Bft)
26.11.2013 16:05 -4,8 C 83 % 1027,9 hPa 0,0 l/m 3,2 km/h (1 Bft) O-SO 112 -7,2 C -5,7 C 5,8 km/h (2 Bft)
26.11.2013 16:10 -4,7 C 84 % 1027,9 hPa 0,0 l/m 3,9 km/h (1 Bft) O-SO 112 -7,0 C -6,0 C 5,8 km/h (2 Bft)
26.11.2013 16:15 -5,1 C 84 % 1027,9 hPa 0,0 l/m 4,3 km/h (1 Bft) SO 135 -7,4 C -6,6 C 1,8 km/h (1 Bft)
26.11.2013 16:20 -5,5 C 84 % 1027,9 hPa 0,0 l/m 3,4 km/h (1 Bft) S-SO 157 -7,8 C -6,2 C 2,6 km/h (1 Bft)
26.11.2013 16:25 -5,6 C 84 % 1027,9 hPa 0,0 l/m 2,6 km/h (1 Bft) O 90 -7,9 C -5,9 C 2,9 km/h (1 Bft)
26.11.2013 16:29 -5,6 C 84 % 1027,9 hPa 0,0 l/m 3,5 km/h (1 Bft) O-SO 112 -7,9 C -6,8 C 5,0 km/h (1 Bft)
26.11.2013 16:30 -5,6 C 84 % 1027,9 hPa 0,0 l/m 3,5 km/h (1 Bft) O-SO 112 -7,9 C -6,8 C 5,0 km/h (1 Bft)
26.11.2013 16:35 -5,3 C 85 % 1027,9 hPa 0,0 l/m 2,3 km/h (1 Bft) SO 135 -7,4 C -5,4 C 0,0 km/h (0 Bft)
26.11.2013 16:40 -5,0 C 85 % 1027,9 hPa 0,0 l/m 1,9 km/h (1 Bft) S 180 -7,1 C -5,0 C 3,2 km/h (1 Bft)
26.11.2013 16:45 -5,0 C 86 % 1027,9 hPa 0,0 l/m 2,3 km/h (1 Bft) S-SO 157 -7,0 C -5,1 C 2,3 km/h (1 Bft)
26.11.2013 16:50 -5,1 C 86 % 1027,9 hPa 0,0 l/m 3,1 km/h (1 Bft) W-SW 247 -7,1 C -5,9 C 6,4 km/h (2 Bft)
26.11.2013 16:55 -5,3 C 86 % 1027,9 hPa 0,0 l/m 3,2 km/h (1 Bft) S-SW 202 -7,3 C -6,1 C 2,3 km/h (1 Bft)
26.11.2013 17:00 -5,5 C 86 % 1027,9 hPa 0,0 l/m 2,6 km/h (1 Bft) S 180 -7,5 C -5,6 C 1,6 km/h (1 Bft)
26.11.2013 17:05 -5,9 C 86 % 1028,2 hPa 0,0 l/m 1,4 km/h (1 Bft) SO 135 -7,9 C -5,3 C 0,0 km/h (0 Bft)
26.11.2013 17:10 -6,2 C 86 % 1028,2 hPa 0,0 l/m 1,1 km/h (1 Bft) SO 135 -8,1 C -5,6 C 0,0 km/h (0 Bft)
26.11.2013 17:15 -6,5 C 85 % 1028,2 hPa 0,0 l/m 1,0 km/h (0 Bft) SO 135 -8,6 C -6,2 C 1,6 km/h (1 Bft)
26.11.2013 17:20 -6,6 C 85 % 1028,2 hPa 0,0 l/m 1,4 km/h (1 Bft) SO 135 -8,7 C -6,5 C 3,4 km/h (1 Bft)
26.11.2013 17:25 -6,6 C 86 % 1028,4 hPa 0,0 l/m 1,9 km/h (1 Bft) SO 135 -8,5 C -6,6 C 0,0 km/h (0 Bft)
26.11.2013 17:30 -6,4 C 86 % 1028,4 hPa 0,0 l/m 2,1 km/h (1 Bft) O-SO 112 -8,3 C -6,8 C 2,6 km/h (1 Bft)
26.11.2013 17:35 -6,4 C 86 % 1028,4 hPa 0,0 l/m 2,3 km/h (1 Bft) NO 45 -8,3 C -6,9 C 4,5 km/h (1 Bft)
26.11.2013 17:40 -6,5 C 86 % 1028,4 hPa 0,0 l/m 3,5 km/h (1 Bft) O 90 -8,4 C -8,1 C 5,5 km/h (1 Bft)
26.11.2013 17:45 -6,3 C 87 % 1028,6 hPa 0,0 l/m 4,5 km/h (1 Bft) O 90 -8,1 C -8,7 C 5,5 km/h (1 Bft)
26.11.2013 17:50 -6,5 C 87 % 1028,6 hPa 0,0 l/m 4,7 km/h (1 Bft) O-SO 112 -8,3 C -8,8 C 3,7 km/h (1 Bft)
26.11.2013 17:55 -6,2 C 87 % 1028,6 hPa 0,0 l/m 4,5 km/h (1 Bft) O 90 -8,0 C -8,6 C 5,0 km/h (1 Bft)
26.11.2013 18:00 -6,1 C 87 % 1028,6 hPa 0,0 l/m 3,7 km/h (1 Bft) O 90 -7,9 C -7,8 C 6,0 km/h (2 Bft)
26.11.2013 18:05 -5,8 C 88 % 1028,5 hPa 0,0 l/m 4,7 km/h (1 Bft) O-SO 112 -7,5 C -8,2 C 6,4 km/h (2 Bft)
26.11.2013 18:10 -5,6 C 88 % 1028,5 hPa 0,0 l/m 6,0 km/h (2 Bft) O 90 -7,3 C -8,6 C 8,2 km/h (2 Bft)
26.11.2013 18:15 -5,5 C 88 % 1028,5 hPa 0,0 l/m 6,1 km/h (2 Bft) NO 45 -7,2 C -8,4 C 6,3 km/h (2 Bft)
26.11.2013 18:20 -5,6 C 88 % 1028,5 hPa 0,0 l/m 5,3 km/h (1 Bft) O-SO 112 -7,3 C -8,0 C 6,0 km/h (2 Bft)
26.11.2013 18:25 -5,6 C 88 % 1028,8 hPa 0,0 l/m 3,5 km/h (1 Bft) O-NO 67 -7,3 C -6,9 C 3,1 km/h (1 Bft)
26.11.2013 18:30 -5,9 C 88 % 1028,8 hPa 0,0 l/m 1,8 km/h (1 Bft) O 90 -7,6 C -5,6 C 0,0 km/h (0 Bft)
26.11.2013 18:35 -6,1 C 87 % 1028,8 hPa 0,0 l/m 0,8 km/h (0 Bft) O-SO 112 -7,9 C -6,0 C 2,1 km/h (1 Bft)
26.11.2013 18:40 -5,9 C 88 % 1028,8 hPa 0,0 l/m 1,8 km/h (1 Bft) O-SO 112 -7,6 C -6,0 C 0,0 km/h (0 Bft)
26.11.2013 18:45 -6,5 C 87 % 1028,8 hPa 0,0 l/m 1,3 km/h (1 Bft) SO 135 -8,3 C -6,2 C 0,0 km/h (0 Bft)
26.11.2013 18:50 -6,8 C 87 % 1028,8 hPa 0,0 l/m 0,0 km/h (0 Bft) O-SO 112 -8,6 C -6,4 C 0,0 km/h (0 Bft)
26.11.2013 18:55 -6,7 C 87 % 1028,8 hPa 0,0 l/m 1,0 km/h (0 Bft) O 90 -8,5 C -6,6 C 2,4 km/h (1 Bft)
26.11.2013 19:00 -6,4 C 87 % 1028,8 hPa 0,0 l/m 1,9 km/h (1 Bft) O 90 -8,2 C -6,6 C 2,7 km/h (1 Bft)
26.11.2013 19:05 -6,1 C 87 % 1028,7 hPa 0,0 l/m 2,7 km/h (1 Bft) O-SO 112 -7,9 C -7,2 C 4,8 km/h (1 Bft)
26.11.2013 19:10 -5,9 C 88 % 1028,7 hPa 0,0 l/m 2,9 km/h (1 Bft) O-SO 112 -7,6 C -7,1 C 2,1 km/h (1 Bft)
26.11.2013 19:15 -5,5 C 88 % 1028,7 hPa 0,0 l/m 3,5 km/h (1 Bft) O-SO 112 -7,2 C -7,2 C 4,3 km/h (1 Bft)
26.11.2013 19:20 -5,5 C 88 % 1028,7 hPa 0,0 l/m 3,7 km/h (1 Bft) O 90 -7,2 C -7,1 C 5,5 km/h (1 Bft)
26.11.2013 19:25 -5,4 C 88 % 1028,9 hPa 0,0 l/m 4,0 km/h (1 Bft) O-SO 112 -7,1 C -7,2 C 5,3 km/h (1 Bft)
26.11.2013 19:30 -5,3 C 88 % 1028,9 hPa 0,0 l/m 4,0 km/h (1 Bft) O 90 -7,0 C -7,1 C 5,0 km/h (1 Bft)
26.11.2013 19:35 -5,3 C 87 % 1028,9 hPa 0,0 l/m 3,7 km/h (1 Bft) S-SO 157 -7,1 C -6,7 C 2,3 km/h (1 Bft)
26.11.2013 19:40 -5,4 C 87 % 1028,9 hPa 0,0 l/m 3,7 km/h (1 Bft) O-NO 67 -7,2 C -6,7 C 5,1 km/h (1 Bft)
26.11.2013 19:45 -5,4 C 87 % 1028,9 hPa 0,0 l/m 4,3 km/h (1 Bft) O-SO 112 -7,2 C -7,2 C 7,1 km/h (2 Bft)
26.11.2013 19:50 -5,5 C 87 % 1028,9 hPa 0,0 l/m 4,7 km/h (1 Bft) O 90 -7,3 C -7,4 C 4,2 km/h (1 Bft)
26.11.2013 19:55 -5,6 C 87 % 1028,9 hPa 0,0 l/m 3,5 km/h (1 Bft) O-SO 112 -7,4 C -6,6 C 2,9 km/h (1 Bft)
26.11.2013 20:00 -5,6 C 87 % 1028,9 hPa 0,0 l/m 2,4 km/h (1 Bft) SO 135 -7,4 C -5,8 C 5,5 km/h (1 Bft)
26.11.2013 20:05 -5,6 C 87 % 1029,0 hPa 0,0 l/m 1,3 km/h (1 Bft) S-SO 157 -7,4 C -5,4 C 1,9 km/h (1 Bft)
26.11.2013 20:10 -5,6 C 87 % 1029,0 hPa 0,0 l/m 1,4 km/h (1 Bft) SO 135 -7,4 C -5,5 C 2,7 km/h (1 Bft)
26.11.2013 20:15 -5,9 C 87 % 1029,0 hPa 0,0 l/m 1,8 km/h (1 Bft) O 90 -7,7 C -5,6 C 2,6 km/h (1 Bft)
26.11.2013 20:20 -5,9 C 87 % 1029,0 hPa 0,0 l/m 1,6 km/h (1 Bft) S-SO 157 -7,7 C -5,8 C 2,4 km/h (1 Bft)
26.11.2013 20:25 -5,9 C 87 % 1029,0 hPa 0,0 l/m 1,4 km/h (1 Bft) SO 135 -7,7 C -6,0 C 2,4 km/h (1 Bft)
26.11.2013 20:30 -5,9 C 87 % 1029,0 hPa 0,0 l/m 1,3 km/h (1 Bft) O-SO 112 -7,7 C -6,0 C 0,0 km/h (0 Bft)
26.11.2013 20:35 -6,0 C 87 % 1029,0 hPa 0,0 l/m 0,6 km/h (0 Bft) S-SO 157 -7,8 C -5,9 C 0,0 km/h (0 Bft)
26.11.2013 20:40 -6,0 C 87 % 1029,0 hPa 0,0 l/m 0,0 km/h (0 Bft) O 90 -7,8 C -5,9 C 0,0 km/h (0 Bft)
26.11.2013 20:45 -6,0 C 87 % 1028,9 hPa 0,0 l/m 0,0 km/h (0 Bft) O 90 -7,8 C -5,9 C 0,0 km/h (0 Bft)
26.11.2013 20:50 -6,0 C 87 % 1028,9 hPa 0,0 l/m 0,0 km/h (0 Bft) O 90 -7,8 C -5,9 C 0,0 km/h (0 Bft)
26.11.2013 20:55 -5,7 C 87 % 1028,9 hPa 0,0 l/m 1,0 km/h (0 Bft) O-SO 112 -7,5 C -5,8 C 3,5 km/h (1 Bft)
26.11.2013 21:00 -5,5 C 87 % 1028,9 hPa 0,0 l/m 1,6 km/h (1 Bft) O-SO 112 -7,3 C -5,6 C 0,0 km/h (0 Bft)
26.11.2013 21:05 -5,6 C 87 % 1029,0 hPa 0,0 l/m 1,4 km/h (1 Bft) S 180 -7,4 C -5,4 C 0,0 km/h (0 Bft)
26.11.2013 21:10 -5,7 C 87 % 1029,0 hPa 0,0 l/m 0,6 km/h (0 Bft) S-SO 157 -7,5 C -5,4 C 0,0 km/h (0 Bft)
26.11.2013 21:15 -5,7 C 87 % 1029,0 hPa 0,0 l/m 0,2 km/h (0 Bft) O 90 -7,5 C -5,5 C 0,0 km/h (0 Bft)
26.11.2013 21:20 -5,6 C 87 % 1029,0 hPa 0,0 l/m 0,3 km/h (0 Bft) O-SO 112 -7,4 C -5,5 C 2,9 km/h (1 Bft)
26.11.2013 21:25 -5,6 C 88 % 1028,8 hPa 0,0 l/m 0,6 km/h (0 Bft) SO 135 -7,3 C -5,5 C 0,0 km/h (0 Bft)
26.11.2013 21:30 -5,6 C 88 % 1028,8 hPa 0,0 l/m 0,5 km/h (0 Bft) S-SO 157 -7,3 C -5,5 C 0,0 km/h (0 Bft)
26.11.2013 21:35 -5,8 C 87 % 1028,8 hPa 0,0 l/m 0,2 km/h (0 Bft) S 180 -7,6 C -5,5 C 0,0 km/h (0 Bft)
26.11.2013 21:40 -6,0 C 87 % 1028,8 hPa 0,0 l/m 1,1 km/h (1 Bft) SO 135 -7,8 C -5,6 C 3,9 km/h (1 Bft)
26.11.2013 21:45 -6,2 C 87 % 1028,9 hPa 0,0 l/m 1,3 km/h (1 Bft) S-SO 157 -8,0 C -5,8 C 2,9 km/h (1 Bft)
26.11.2013 21:50 -6,3 C 87 % 1028,9 hPa 0,0 l/m 1,8 km/h (1 Bft) O-SO 112 -8,1 C -5,9 C 5,0 km/h (1 Bft)
26.11.2013 21:55 -6,3 C 87 % 1028,9 hPa 0,0 l/m 2,9 km/h (1 Bft) O-SO 112 -8,1 C -6,9 C 2,6 km/h (1 Bft)
26.11.2013 22:00 -6,5 C 87 % 1028,9 hPa 0,0 l/m 2,6 km/h (1 Bft) O 90 -8,3 C -6,8 C 0,0 km/h (0 Bft)
26.11.2013 22:05 -6,9 C 87 % 1028,8 hPa 0,0 l/m 0,6 km/h (0 Bft) SO 135 -8,7 C -6,4 C 0,0 km/h (0 Bft)
26.11.2013 22:10 -7,0 C 87 % 1028,8 hPa 0,0 l/m 0,0 km/h (0 Bft) O 90 -8,8 C -6,6 C 0,0 km/h (0 Bft)
26.11.2013 22:15 -6,9 C 87 % 1028,8 hPa 0,0 l/m 0,2 km/h (0 Bft) O 90 -8,7 C -6,8 C 0,0 km/h (0 Bft)
26.11.2013 22:20 -6,6 C 87 % 1028,8 hPa 0,0 l/m 0,3 km/h (0 Bft) O 90 -8,4 C -6,7 C 1,6 km/h (1 Bft)
26.11.2013 22:25 -6,8 C 87 % 1028,8 hPa 0,0 l/m 0,3 km/h (0 Bft) O 90 -8,6 C -6,7 C 1,6 km/h (1 Bft)
26.11.2013 22:28 -6,8 C 87 % 1028,8 hPa 0,0 l/m 0,2 km/h (0 Bft) O 90 -8,6 C -6,7 C 0,0 km/h (0 Bft)
26.11.2013 22:30 -6,8 C 87 % 1028,8 hPa 0,0 l/m 0,2 km/h (0 Bft) O 90 -8,6 C -6,7 C 0,0 km/h (0 Bft)
26.11.2013 22:35 -7,0 C 87 % 1028,8 hPa 0,0 l/m 0,0 km/h (0 Bft) O 90 -8,8 C -6,7 C 0,0 km/h (0 Bft)
26.11.2013 22:40 -7,2 C 87 % 1028,8 hPa 0,0 l/m 0,0 km/h (0 Bft) O 90 -9,0 C -6,8 C 0,0 km/h (0 Bft)
26.11.2013 22:45 -7,2 C 87 % 1028,6 hPa 0,0 l/m 0,0 km/h (0 Bft) O 90 -9,0 C -7,0 C 0,0 km/h (0 Bft)
26.11.2013 22:50 -7,6 C 87 % 1028,6 hPa 0,0 l/m 0,0 km/h (0 Bft) O 90 -9,4 C -7,1 C 0,0 km/h (0 Bft)
26.11.2013 22:55 -7,4 C 87 % 1028,6 hPa 0,0 l/m 0,0 km/h (0 Bft) O 90 -9,2 C -7,1 C 0,0 km/h (0 Bft)
26.11.2013 23:00 -7,0 C 88 % 1028,6 hPa 0,0 l/m 0,5 km/h (0 Bft) O 90 -8,6 C -7,1 C 2,6 km/h (1 Bft)
26.11.2013 23:05 -6,5 C 88 % 1028,8 hPa 0,0 l/m 1,8 km/h (1 Bft) O 90 -8,1 C -6,7 C 2,4 km/h (1 Bft)
26.11.2013 23:10 -6,5 C 88 % 1028,8 hPa 0,0 l/m 2,6 km/h (1 Bft) O-SO 112 -8,1 C -7,2 C 2,3 km/h (1 Bft)
26.11.2013 23:15 -6,3 C 88 % 1028,8 hPa 0,0 l/m 1,8 km/h (1 Bft) O 90 -8,0 C -6,4 C 0,0 km/h (0 Bft)
26.11.2013 23:20 -6,8 C 88 % 1028,8 hPa 0,0 l/m 0,8 km/h (0 Bft) O-SO 112 -8,4 C -6,4 C 0,0 km/h (0 Bft)
26.11.2013 23:25 -7,0 C 88 % 1028,8 hPa 0,0 l/m 0,0 km/h (0 Bft) NO 45 -8,6 C -6,6 C 0,0 km/h (0 Bft)
26.11.2013 23:30 -7,0 C 88 % 1028,8 hPa 0,0 l/m 0,0 km/h (0 Bft) NO 45 -8,6 C -6,7 C 0,0 km/h (0 Bft)
26.11.2013 23:35 -6,9 C 88 % 1028,8 hPa 0,0 l/m 0,0 km/h (0 Bft) NO 45 -8,5 C -6,6 C 0,0 km/h (0 Bft)
26.11.2013 23:40 -6,9 C 88 % 1028,8 hPa 0,0 l/m 0,0 km/h (0 Bft) NO 45 -8,5 C -6,6 C 0,0 km/h (0 Bft)
26.11.2013 23:45 -6,9 C 88 % 1028,8 hPa 0,0 l/m 0,0 km/h (0 Bft) NO 45 -8,5 C -6,6 C 0,0 km/h (0 Bft)
26.11.2013 23:50 -6,8 C 88 % 1028,8 hPa 0,0 l/m 0,0 km/h (0 Bft) O-NO 67 -8,4 C -6,6 C 1,6 km/h (1 Bft)
26.11.2013 23:55 -6,7 C 88 % 1028,8 hPa 0,0 l/m 0,0 km/h (0 Bft) O 90 -8,3 C -6,6 C 0,0 km/h (0 Bft)
_ Min-Zeit 22:50 14:10 01:00 - 23:55 - - 22:50 17:50 23:55
Minimum _ -7,6 C 66 % 1025,9 hPa - 0,0 km/h (0 Bft) - - -9,4 C -8,8 C 0,0 km/h (0 Bft)
_ Max-Zeit 14:05 08:45 21:20 23:55 15:30 - - 12:15 13:55 15:25
Maximum _ 1,5 C 91 % 1029,0 hPa 0,0 l/m 6,6 km/h
W-SW (2 Bft)
- - -3,4 C 3,4 C 12,7 km/h
W-NW (3 Bft)
Durchschnitt _ -4,6 C 86 % 1027,7 hPa #0,0 l/m 2,8 km/h (1 Bft) S - -6,7 C -5,3 C 3,5 km/h (1 Bft)